Timeline UpdatesTrip UpdatesNews PostsPvt PostsTravel TipsAdmin PostsConv PostsFollowed PostsChat RequestsBlog PostsPNR Posts

Disclaimer
Search
 
 
Fri Aug 22, 2014 21:14:24 ISTHomeTrainsΣChainsAtlasPNRForumGalleryNewsFAQTripsMembersLoginFeedback
No Recent News for this Train
Other Trains in the News **new
Latest...
Will stop at all stations between Muzaffarpur and Sonpur from 23/8/14-27/8/14 #1193871.
Thu Aug 21, 2014 (10:11PM)
⇐ Return Journey: Train# 15028

15027/Maurya Express

Jul 01 2013 (3:53PM)
Change Departure Station:
Change Arrival Station:
Post a Train Travel TipPost a Train Travel Tip **new
Post a Comment/Question/Picture/VideoPost a Comment/Question/Picture/Video
Pantry/Catering
✕ NO Pantry Car
✓ Catering Avbl
RSA - Rake Sharing
Rake/Coach Composition
LOCO-SLR-GS-S1-S2-S3-S4-B1-A1-GS-GS-GS-GS-GS-GS-SLR
Loco
HWH WAP-4 (HTE-BJU) GD WDM-3A (BJU-GKP)
News    PNR    Forum    Time-Table    Availability    Fare Chart    Map    Arr/Dep History    Trips    Gallery    ΣChains    X/O    Timeline    
Travel Time: 19h 27m    36 halts    Distance: 697 km    Avg Speed: 35 km/hr
Type: Mail/Express
Zone: NER/North Eastern
Departs @ 17:05
Platform# 1
SMTWTFS
Hatia/HTE 
Arrives @ 12:32 +1 night
Platform# ???
SMTWTFS
Ekma/EKMA 

36 halts. 140 intermediate Stations between Hatia and Ekma

Show ALL intermediate Stations  Show Old Time-Table

#CodeStation NameX/OArrivesAvgDepartsAvgHaltPFDay#KmSpeedElevZoneAddress
1HTE»Hatia (3)»  -17:05-110.028657mSER2788599, Jharkhand
2RNCRanchi Junction (6)X  17:20-17:30-10m117.055632mSERDiv HQ SER, Jharkhand
3MURIMuri Junction (3)X  18:35-18:40-5m1166.740254mSER06522-222444, Jharkhand
4JAAJhalida (3)  18:59-19:00-1m--179.441297mSERJhalida, West Bengal
5KSXKotshila Junction (3)X  19:17-19:18-1m2191.163312mSERPurulia District, West Bengal
6BKSCBokaro Steel City (3)X  19:45-19:50-5m11119.327245mSER06542-253861, Jharkhand
7CRPChandrapura Junction (2)  20:24-20:26-2m11134.938227mECR06549-242555, Jharkhand
8KTHKatrasgarh (1)  20:58-21:03-5m11155.418198mECRKatrasgarh, Jharkhand
9DHNDhanbad Junction (8)X  21:50-22:10-20m51169.264235mECR2319801. Div. HQ ECR, Jharkhand
10KMMEKumardubi (2)  22:46-22:47-1m--1207.630135mERDhanbad - 828203(06540-222077), Jharkhand
11BRRBarakar (2)X  22:52-22:53-1m--1210.212129mERDist. Bardhaman, West Bengal
12ULTKulti (3)  23:10-23:11-1m--1213.438148mERdist - bardhaman, West Bengal
13CRJChittaranjan (3)X  23:41-23:42-1m31232.277182mERMihijam, Jharkhand
14VDSVidyasagar (2)X  00:07-00:08-1m--2264.463250mERJamtara, Jharkhand
15MDPMadhupur Junction (4)X  00:31-00:35-4m22288.673254mER06432-224478, Jharkhand
16JSMEJasidih Junction (5)X  00:59-01:04-5m--2317.643271mERJasidih, Jharkhand
17JAJJhajha (4)X  02:05-02:15-10m--2361.782143mECRJhajha, Bihar
18JMUJamui (3)  02:34-02:35-1m--2387.76681mECRState Highway 72, Bihar
19KIULKiul Junction (5)  03:00-03:05-5m--2415.01253mECRDist. Lakhisarai, Bihar
20LKRLuckeesarai Junction (2)  03:12-03:13-1m12416.43152mECRLakhisarai, Bihar
21BRYABarhiya (3)  03:42-03:43-1m--2431.52147mECRBarahiya, Bihar
22HTZHathidah Junction (2)  04:10-04:11-1m12440.91450mECRMusahari, Bihar
23BJUBarauni Junction (9)X05:05-05:35-30m72453.44949mECRBegusarai, Bihar
24BCABachwara Junction  05:55-05:56-1m--2469.85149mECRBegusarai, Bihar
25DSSDalsingh Sarai (2)X  06:09-06:10-1m12480.835 ECR06278-221238, Bihar
26SPJSamastipur Junction (9)  06:50-07:00-10m92504.03855mECRSamastipur, Bihar
27KPGMKarpurigram (3)X  07:10-07:11-1m--2510.25551mECRState Highway 49, Bihar
28KRBPKhudiram B Pusa  07:19-07:20-1m--2517.66252mECRDistt. Samastipur, Bihar
29DOLDholi (2)  07:33-07:34-1m--2531.049 ECRDistt. Muzaffarpur, Bihar
30MFPMuzaffarpur Junction (6)  08:05-08:15-10m22556.13557mECRMuzaffarpur, Bihar
31GRLGoraul (2)  08:59-09:00-1m22582.02257mECRVAISHALI, Bihar
32BNRBhagwanpur (2)X  09:23-09:24-1m22590.33560mECRBhagwanpur, Bihar
33HJPHajipur Junction (3)  09:58-09:59-1m12609.93355mECR06224-272230, Bihar
34SEESonpur Junction (4)X  10:09-10:19-10m--2615.46656mECRSaran, Bihar
35DGADighwara (2)  10:40-10:41-1m--2638.62960mECR06158-281240, Bihar
36CIChhapra Kacheri (3)X  11:40-11:42-2m--2667.31657mNERChhapra, Bihar
37CPRChhapra Junction (6)X  11:50-12:10-20m--2669.47658mNERDistt: Saran, Bihar
38EKMA•Ekma (3)•  12:32-12:33-1m--2697.35564mNERSaran, Bihar
39DDADuraundha Junction (3)  12:50-12:51-1m--2712.85664mNERDistt: Siwan, Bihar
40SVSiwan Junction (4)X  13:10-13:15-5m--2730.64870mNERSiwan, Bihar
41ZRDEJiradei (2)13:28-13:30-2m--2741.09469mNERSiwan, Bihar
42MWMairwa (2)  13:37-13:38-1m--2751.93973mNERMairwa, Bihar
43BTKBankata (2)X  13:48-13:49-1m--2758.41973mNERDeoria, Uttar Pradesh
44BHTRBhatpar Rani (2)XO  14:14-14:15-1m--2766.52673mNERDeoria, Uttar Pradesh
45BTTBhatni Junction (5)X  14:45-14:50-5m--2779.37873mNERDeoria, Uttar Pradesh
46DEOSDeoria Sadar (3)  15:06-15:07-1m--2800.12879mNERDeoria- 274001, Uttar Pradesh
47GBGauri Bazar (2)X  15:39-15:40-1m--2815.23182mNERDistrict Deoria- Pincode- 274202, Uttar Pradesh
48CCChauri Chaura (2)  15:59-16:00-1m--2824.91884mNERGorakhpur- PinCode:- 273201, Uttar Pradesh
49GKPGorakhpur Junction (10)  17:20--12849.3-84mNERGorakhpur 273001, Uttar Pradesh
Scroll to Top
Scroll to Bottom